Flight Track Log - Related Links

Times and Time Zones

All times are in EDT time to prevent confusion due to time zone crossing. See the ASP597 flight status page for this flight to view local times or setup timezone preferences in your user account.

Time Position Orientation Groundspeed Altitude Reporting Facility
EDT Latitude Longitude Course Direction KTS MPH feet Rate Location/Type
Tue 12:40:08 PM 43.4500 -80.3667 194° South 160 184 2,000  Level Toronto Center
Tue 12:41:08 PM 43.4000 -80.3833 194° South 210 242 4,000 1,000 Climbing Toronto Center
Tue 12:42:08 PM 43.3333 -80.4333 209° Southwest 240 276 4,000 1,150 Level Toronto Center
Tue 12:43:08 PM 43.3167 -80.5333 257° West 260 299 6,300 2,750 Climbing Toronto Center
Tue 12:44:08 PM 43.2833 -80.6167 241° Southwest 270 311 9,500 2,650 Climbing Toronto Center
Tue 12:45:08 PM 43.2500 -80.7167 245° Southwest 280 322 11,600 2,100 Climbing Toronto Center
Tue 12:46:08 PM 43.2000 -80.8167 236° Southwest 300 345 13,700 1,900 Climbing Toronto Center
Tue 12:47:08 PM 43.1667 -80.9333 249° West 310 357 15,400 1,150 Climbing Toronto Center
Tue 12:48:08 PM 43.1333 -81.0500 249° West 330 380 16,000 300 Climbing Toronto Center
Tue 12:49:08 PM 43.0833 -81.1833 243° Southwest 370 426 16,000  Level Toronto Center
Tue 12:50:08 PM 43.0500 -81.3000 249° West 380 437 16,000  Level Toronto Center
Tue 12:51:08 PM 43.0000 -81.4333 243° Southwest 380 437 16,000  Level Toronto Center
Tue 12:52:08 PM 42.9667 -81.5667 251° West 380 437 16,000 -100 Level Toronto Center
Tue 12:53:08 PM 42.9167 -81.6833 240° Southwest 380 437 15,800 -1,100 Descending Toronto Center
Tue 12:54:08 PM 42.8833 -81.8167 251° West 370 426 13,800 -1,850 Descending Toronto Center
Tue 12:55:08 PM 42.8167 -81.9333 232° Southwest 350 403 12,100 -900 Descending Toronto Center
Tue 12:56:08 PM 42.7833 -82.0667 251° West 340 391 12,000 -350 Descending Toronto Center
Tue 12:57:08 PM 42.7667 -82.1833 259° West 340 391 11,400 -550 Descending Toronto Center
Tue 12:58:08 PM 42.7667 -82.3167 270° West 330 380 10,900 -500 Descending Toronto Center
Tue 12:59:08 PM 42.7500 -82.4333 259° West 330 380 10,400 -500 Descending Toronto Center
Tue 01:00:08 PM 42.7500 -82.5667 270° West 330 380 9,900 -850 Descending Toronto Center
Tue 01:01:08 PM 42.7333 -82.6500 255° West 280 322 8,700 -1,200 Descending Toronto Center
Tue 01:01:53 PM 42.7464 -82.7461 281° West 260 299 7,800 -1,105 Descending Cleveland Center
Tue 01:02:24 PM 42.7475 -82.7969 272° West 272 313 7,300 -985 Descending Cleveland Center
Tue 01:03:00 PM 42.7400 -82.8503 259° West 256 295 6,700 -699 Descending Cleveland Center
Tue 01:04:07 PM 42.7358 -82.9633 267° West 257 296 6,100 -448 Descending Cleveland Center
Tue 01:05:14 PM 42.7150 -83.0586 253° West 249 287 5,700 -443 Descending Cleveland Center
Tue 01:06:09 PM 42.6844 -83.1139 233° Southwest 197 227 5,200 -724 Descending Cleveland Center
Tue 01:07:10 PM 42.6725 -83.1869 257° West 179 206 4,300 -934 Descending Cleveland Center
Tue 01:08:11 PM 42.6689 -83.2544 266° West 178 205 3,300 -942 Descending Cleveland Center
Tue 01:09:11 PM 42.6672 -83.3194 268° West 173 199 2,400 -850 Descending Cleveland Center
Tue 01:10:18 PM 42.6678 -83.3844 271° West 142 163 1,500 -806 Descending Cleveland Center
Tue 01:12:00 PM 42.6500 -83.4167 246° West  Level FlightAware Approximate
Tue 01:19:00 PM 42.6656 -83.4205 246° West  Level Estimated

Login

Don't have an account? Register now (free) for customized features, flight alerts, and more!